MAPA DE AEROPUERTO

INFORMACIÓN METAR y TAF

METAR FOR LEPA
ADDS - METARS form results

(1746 UTC 17 April 2021)
Data provider http://aviationweather.gov/metar/data/
 
METAR text: LEPA 171730Z 23004KT 200V260 9999 SCT028 11/05 Q1017 NOSIG
Conditions at: LEPA (PALMA DE MALLORC, ES) observed 1730 UTC 17 April 2021
Temperature: 11.0°C (52°F)
Dewpoint: 5.0°C (41°F) [RH = 66%]
Pressure (altimeter): 30.03 inches Hg (1017.0 mb)
Winds: from the SW (230 degrees) at 5 MPH (4 knots; 2.1 m/s)
Visibility: 6 or more miles (10+ km)
Ceiling: at least 12,000 feet AGL
Clouds: scattered clouds at 2800 feet AGL
Weather: no significant weather observed at this time

METAR text: LEPA 171700Z 24006KT 200V270 9999 SCT028 12/05 Q1017 NOSIG
Conditions at: LEPA (PALMA DE MALLORC, ES) observed 1700 UTC 17 April 2021
Temperature: 12.0°C (54°F)
Dewpoint: 5.0°C (41°F) [RH = 62%]
Pressure (altimeter): 30.03 inches Hg (1017.0 mb)
Winds: from the WSW (240 degrees) at 7 MPH (6 knots; 3.1 m/s)
Visibility: 6 or more miles (10+ km)
Ceiling: at least 12,000 feet AGL
Clouds: scattered clouds at 2800 feet AGL
Weather: no significant weather observed at this time

Forecast for: LEPA (PALMA DE MALLORC, ES)
Text: TAF LEPA 171700Z 1718/1818 26004KT 9999 SCT030 TX13/1812Z TN06/1806Z
Forecast period: 1800 to 2000 UTC 17 April 2021
Forecast type: FROM: standard forecast or significant change
Winds: from the W (260 degrees) at 5 MPH (4 knots; 2.1 m/s)
Visibility: 6 or more miles (10+ km)
Ceiling: at least 12,000 feet AGL
Clouds: scattered clouds at 3000 feet AGL
Weather: no significant weather forecast for this period
Text: BECMG 1720/1722 36005KT
Forecast period: 2000 UTC 17 April 2021 to 1000 UTC 18 April 2021
Forecast type: BECOMING: Conditions expected to become as follows by 2200 UTC 17 April 2021
Winds: from the N (360 degrees) at 6 MPH (5 knots; 2.6 m/s)
Visibility: 6 or more miles (10+ km)
Ceiling: at least 12,000 feet AGL
Clouds: scattered clouds at 3000 feet AGL
Weather: no significant weather forecast for this period
Text: BECMG 1810/1812 22010KT
Forecast period: 1000 to 1800 UTC 18 April 2021
Forecast type: BECOMING: Conditions expected to become as follows by 1200 UTC 18 April 2021
Winds: from the SW (220 degrees) at 12 MPH (10 knots; 5.1 m/s)
Visibility: 6 or more miles (10+ km)
Ceiling: at least 12,000 feet AGL
Clouds: scattered clouds at 3000 feet AGL
Weather: no significant weather forecast for this period
Text: PROB30
Forecast period: 1000 to 1700 UTC 18 April 2021
Forecast type: TEMPORARY: The following changes expected for less than half the time period
Visibility: missing
Ceiling: at least 12,000 feet AGL
Clouds: few clouds at 3000 feet AGL
Weather: SHRA  (rain showers)